sensor_id;sensor_type;location;lat;lon;timestamp;P1;durP1;ratioP1;P2;durP2;ratioP2
36799;SDS011;22752;51.960;5.886;2023-06-24T00:01:35;7.38;;;6.00;;
36799;SDS011;22752;51.960;5.886;2023-06-24T00:04:01;7.53;;;6.57;;
36799;SDS011;22752;51.960;5.886;2023-06-24T00:06:27;9.07;;;6.72;;
36799;SDS011;22752;51.960;5.886;2023-06-24T00:08:53;6.78;;;5.93;;
36799;SDS011;22752;51.960;5.886;2023-06-24T00:11:25;7.22;;;6.10;;
36799;SDS011;22752;51.960;5.886;2023-06-24T00:13:52;8.05;;;6.85;;
36799;SDS011;22752;51.960;5.886;2023-06-24T00:16:18;7.25;;;6.55;;
36799;SDS011;22752;51.960;5.886;2023-06-24T00:18:51;9.82;;;6.68;;
36799;SDS011;22752;51.960;5.886;2023-06-24T00:21:18;7.57;;;5.88;;
36799;SDS011;22752;51.960;5.886;2023-06-24T00:23:44;9.07;;;6.20;;
36799;SDS011;22752;51.960;5.886;2023-06-24T00:26:10;8.68;;;6.28;;
36799;SDS011;22752;51.960;5.886;2023-06-24T00:28:36;8.90;;;6.30;;
36799;SDS011;22752;51.960;5.886;2023-06-24T00:31:01;9.48;;;6.70;;
36799;SDS011;22752;51.960;5.886;2023-06-24T00:33:28;8.55;;;6.60;;
36799;SDS011;22752;51.960;5.886;2023-06-24T00:35:53;7.40;;;6.28;;
36799;SDS011;22752;51.960;5.886;2023-06-24T00:38:21;10.32;;;7.30;;
36799;SDS011;22752;51.960;5.886;2023-06-24T00:40:47;8.40;;;7.13;;
36799;SDS011;22752;51.960;5.886;2023-06-24T00:43:13;7.85;;;7.00;;
36799;SDS011;22752;51.960;5.886;2023-06-24T00:45:38;8.93;;;7.18;;
36799;SDS011;22752;51.960;5.886;2023-06-24T00:48:04;7.55;;;6.60;;
36799;SDS011;22752;51.960;5.886;2023-06-24T00:50:31;8.60;;;7.13;;
36799;SDS011;22752;51.960;5.886;2023-06-24T00:52:56;9.13;;;7.22;;
36799;SDS011;22752;51.960;5.886;2023-06-24T00:55:22;7.57;;;6.88;;
36799;SDS011;22752;51.960;5.886;2023-06-24T00:57:51;9.50;;;8.18;;
36799;SDS011;22752;51.960;5.886;2023-06-24T01:00:18;9.77;;;8.02;;
36799;SDS011;22752;51.960;5.886;2023-06-24T01:02:49;10.13;;;8.48;;
36799;SDS011;22752;51.960;5.886;2023-06-24T01:05:15;7.97;;;7.18;;
36799;SDS011;22752;51.960;5.886;2023-06-24T01:07:41;9.05;;;7.50;;
36799;SDS011;22752;51.960;5.886;2023-06-24T01:10:08;7.88;;;7.07;;
36799;SDS011;22752;51.960;5.886;2023-06-24T01:12:37;8.38;;;7.45;;
36799;SDS011;22752;51.960;5.886;2023-06-24T01:15:04;7.50;;;6.75;;
36799;SDS011;22752;51.960;5.886;2023-06-24T01:28:58;9.30;;;7.53;;
36799;SDS011;22752;51.960;5.886;2023-06-24T01:34:01;8.45;;;7.55;;
36799;SDS011;22752;51.960;5.886;2023-06-24T01:36:31;8.18;;;7.22;;
36799;SDS011;22752;51.960;5.886;2023-06-24T01:39:03;10.40;;;9.30;;
36799;SDS011;22752;51.960;5.886;2023-06-24T01:41:36;9.70;;;8.38;;
36799;SDS011;22752;51.960;5.886;2023-06-24T01:44:25;12.30;;;8.10;;
36799;SDS011;22752;51.960;5.886;2023-06-24T01:46:54;10.07;;;8.98;;
36799;SDS011;22752;51.960;5.886;2023-06-24T01:49:22;10.45;;;7.65;;
36799;SDS011;22752;51.960;5.886;2023-06-24T01:51:52;8.40;;;7.38;;
36799;SDS011;22752;51.960;5.886;2023-06-24T01:54:22;9.00;;;6.88;;
36799;SDS011;22752;51.960;5.886;2023-06-24T01:56:49;8.20;;;7.40;;
36799;SDS011;22752;51.960;5.886;2023-06-24T01:59:17;8.90;;;7.57;;
36799;SDS011;22752;51.960;5.886;2023-06-24T02:01:45;8.10;;;7.30;;
36799;SDS011;22752;51.960;5.886;2023-06-24T02:04:11;10.30;;;8.23;;
36799;SDS011;22752;51.960;5.886;2023-06-24T02:06:38;9.60;;;7.50;;
36799;SDS011;22752;51.960;5.886;2023-06-24T02:09:05;9.15;;;7.88;;
36799;SDS011;22752;51.960;5.886;2023-06-24T02:11:32;9.73;;;8.73;;
36799;SDS011;22752;51.960;5.886;2023-06-24T02:14:00;11.32;;;8.25;;
36799;SDS011;22752;51.960;5.886;2023-06-24T02:16:28;9.25;;;8.15;;
36799;SDS011;22752;51.960;5.886;2023-06-24T02:18:55;10.20;;;8.38;;
36799;SDS011;22752;51.960;5.886;2023-06-24T02:21:21;9.27;;;8.38;;
36799;SDS011;22752;51.960;5.886;2023-06-24T02:23:50;10.30;;;8.13;;
36799;SDS011;22752;51.960;5.886;2023-06-24T02:26:16;11.15;;;8.40;;
36799;SDS011;22752;51.960;5.886;2023-06-24T02:28:46;9.60;;;8.70;;
36799;SDS011;22752;51.960;5.886;2023-06-24T02:31:13;10.45;;;8.57;;
36799;SDS011;22752;51.960;5.886;2023-06-24T02:33:40;10.00;;;8.73;;
36799;SDS011;22752;51.960;5.886;2023-06-24T02:36:06;10.20;;;8.57;;
36799;SDS011;22752;51.960;5.886;2023-06-24T02:38:32;9.27;;;8.20;;
36799;SDS011;22752;51.960;5.886;2023-06-24T02:40:57;9.90;;;8.90;;
36799;SDS011;22752;51.960;5.886;2023-06-24T02:43:23;10.05;;;9.00;;
36799;SDS011;22752;51.960;5.886;2023-06-24T02:45:49;9.68;;;8.13;;
36799;SDS011;22752;51.960;5.886;2023-06-24T02:48:15;10.05;;;8.95;;
36799;SDS011;22752;51.960;5.886;2023-06-24T02:50:43;8.95;;;8.05;;
36799;SDS011;22752;51.960;5.886;2023-06-24T02:53:13;10.15;;;8.77;;
36799;SDS011;22752;51.960;5.886;2023-06-24T02:55:40;10.80;;;8.85;;
36799;SDS011;22752;51.960;5.886;2023-06-24T02:58:07;10.77;;;9.73;;
36799;SDS011;22752;51.960;5.886;2023-06-24T03:00:34;10.90;;;9.70;;
36799;SDS011;22752;51.960;5.886;2023-06-24T03:03:04;10.40;;;9.30;;
36799;SDS011;22752;51.960;5.886;2023-06-24T03:05:31;10.82;;;9.68;;
36799;SDS011;22752;51.960;5.886;2023-06-24T03:07:58;11.63;;;9.68;;
36799;SDS011;22752;51.960;5.886;2023-06-24T03:10:24;10.77;;;9.40;;
36799;SDS011;22752;51.960;5.886;2023-06-24T03:12:50;11.68;;;9.23;;
36799;SDS011;22752;51.960;5.886;2023-06-24T03:15:16;8.60;;;7.55;;
36799;SDS011;22752;51.960;5.886;2023-06-24T03:17:42;9.82;;;8.23;;
36799;SDS011;22752;51.960;5.886;2023-06-24T03:20:08;9.93;;;8.70;;
36799;SDS011;22752;51.960;5.886;2023-06-24T03:22:34;10.80;;;8.65;;
36799;SDS011;22752;51.960;5.886;2023-06-24T03:25:00;9.63;;;8.63;;
36799;SDS011;22752;51.960;5.886;2023-06-24T03:27:26;9.43;;;8.45;;
36799;SDS011;22752;51.960;5.886;2023-06-24T03:29:52;8.98;;;8.07;;
36799;SDS011;22752;51.960;5.886;2023-06-24T03:32:17;9.88;;;8.88;;
36799;SDS011;22752;51.960;5.886;2023-06-24T03:34:43;12.73;;;9.90;;
36799;SDS011;22752;51.960;5.886;2023-06-24T03:37:08;11.48;;;9.13;;
36799;SDS011;22752;51.960;5.886;2023-06-24T03:39:34;10.68;;;9.57;;
36799;SDS011;22752;51.960;5.886;2023-06-24T03:42:00;10.25;;;9.25;;
36799;SDS011;22752;51.960;5.886;2023-06-24T03:44:25;10.48;;;9.45;;
36799;SDS011;22752;51.960;5.886;2023-06-24T03:46:51;10.07;;;9.07;;
36799;SDS011;22752;51.960;5.886;2023-06-24T03:49:17;10.98;;;9.55;;
36799;SDS011;22752;51.960;5.886;2023-06-24T03:51:43;9.60;;;8.60;;
36799;SDS011;22752;51.960;5.886;2023-06-24T03:54:09;10.85;;;9.32;;
36799;SDS011;22752;51.960;5.886;2023-06-24T03:56:34;9.95;;;8.95;;
36799;SDS011;22752;51.960;5.886;2023-06-24T03:59:00;10.75;;;8.23;;
36799;SDS011;22752;51.960;5.886;2023-06-24T04:01:26;11.38;;;9.90;;
36799;SDS011;22752;51.960;5.886;2023-06-24T04:03:52;10.25;;;9.05;;
36799;SDS011;22752;51.960;5.886;2023-06-24T04:06:17;13.07;;;11.57;;
36799;SDS011;22752;51.960;5.886;2023-06-24T04:08:43;12.23;;;10.32;;
36799;SDS011;22752;51.960;5.886;2023-06-24T04:11:09;10.77;;;9.68;;
36799;SDS011;22752;51.960;5.886;2023-06-24T04:13:35;9.57;;;8.68;;
36799;SDS011;22752;51.960;5.886;2023-06-24T04:16:01;10.23;;;8.93;;
36799;SDS011;22752;51.960;5.886;2023-06-24T04:18:27;11.02;;;9.00;;
36799;SDS011;22752;51.960;5.886;2023-06-24T04:20:53;9.70;;;8.73;;
36799;SDS011;22752;51.960;5.886;2023-06-24T04:23:19;10.35;;;7.95;;
36799;SDS011;22752;51.960;5.886;2023-06-24T04:25:44;9.00;;;8.10;;
36799;SDS011;22752;51.960;5.886;2023-06-24T04:28:10;9.68;;;8.68;;
36799;SDS011;22752;51.960;5.886;2023-06-24T04:30:36;10.50;;;8.57;;
36799;SDS011;22752;51.960;5.886;2023-06-24T04:33:05;12.48;;;9.18;;
36799;SDS011;22752;51.960;5.886;2023-06-24T04:35:30;10.45;;;9.07;;
36799;SDS011;22752;51.960;5.886;2023-06-24T04:37:56;10.25;;;8.82;;
36799;SDS011;22752;51.960;5.886;2023-06-24T04:40:22;11.38;;;8.55;;
36799;SDS011;22752;51.960;5.886;2023-06-24T04:42:47;9.63;;;8.60;;
36799;SDS011;22752;51.960;5.886;2023-06-24T04:45:13;11.77;;;8.63;;
36799;SDS011;22752;51.960;5.886;2023-06-24T04:47:39;10.57;;;8.85;;
36799;SDS011;22752;51.960;5.886;2023-06-24T04:50:05;10.75;;;8.55;;
36799;SDS011;22752;51.960;5.886;2023-06-24T04:52:31;11.30;;;8.55;;
36799;SDS011;22752;51.960;5.886;2023-06-24T04:54:57;11.07;;;9.02;;
36799;SDS011;22752;51.960;5.886;2023-06-24T04:57:26;10.18;;;7.95;;
36799;SDS011;22752;51.960;5.886;2023-06-24T04:59:53;10.43;;;7.82;;
36799;SDS011;22752;51.960;5.886;2023-06-24T05:02:19;10.25;;;7.40;;
36799;SDS011;22752;51.960;5.886;2023-06-24T05:04:45;10.13;;;8.70;;
36799;SDS011;22752;51.960;5.886;2023-06-24T05:07:10;11.27;;;8.80;;
36799;SDS011;22752;51.960;5.886;2023-06-24T05:09:36;10.07;;;8.32;;
36799;SDS011;22752;51.960;5.886;2023-06-24T05:12:05;10.07;;;8.10;;
36799;SDS011;22752;51.960;5.886;2023-06-24T05:14:35;10.57;;;8.85;;
36799;SDS011;22752;51.960;5.886;2023-06-24T05:17:04;9.43;;;8.18;;
36799;SDS011;22752;51.960;5.886;2023-06-24T05:19:30;11.05;;;9.10;;
36799;SDS011;22752;51.960;5.886;2023-06-24T05:21:56;11.20;;;8.40;;
36799;SDS011;22752;51.960;5.886;2023-06-24T05:24:22;10.65;;;8.07;;
36799;SDS011;22752;51.960;5.886;2023-06-24T05:26:48;8.40;;;7.60;;
36799;SDS011;22752;51.960;5.886;2023-06-24T05:29:15;7.18;;;6.45;;
36799;SDS011;22752;51.960;5.886;2023-06-24T05:31:41;8.43;;;6.47;;
36799;SDS011;22752;51.960;5.886;2023-06-24T05:34:06;6.22;;;5.63;;
36799;SDS011;22752;51.960;5.886;2023-06-24T05:36:33;6.80;;;5.80;;
36799;SDS011;22752;51.960;5.886;2023-06-24T05:38:58;6.90;;;5.35;;
36799;SDS011;22752;51.960;5.886;2023-06-24T05:41:24;5.70;;;4.90;;
36799;SDS011;22752;51.960;5.886;2023-06-24T05:44:00;5.85;;;5.00;;
36799;SDS011;22752;51.960;5.886;2023-06-24T05:46:30;7.32;;;4.60;;
36799;SDS011;22752;51.960;5.886;2023-06-24T05:48:56;8.35;;;5.32;;
36799;SDS011;22752;51.960;5.886;2023-06-24T05:51:21;6.05;;;4.95;;
36799;SDS011;22752;51.960;5.886;2023-06-24T05:53:47;5.10;;;4.60;;
36799;SDS011;22752;51.960;5.886;2023-06-24T05:56:13;5.32;;;4.57;;
36799;SDS011;22752;51.960;5.886;2023-06-24T05:58:38;7.60;;;5.13;;
36799;SDS011;22752;51.960;5.886;2023-06-24T06:01:05;6.40;;;4.70;;
36799;SDS011;22752;51.960;5.886;2023-06-24T06:03:31;7.63;;;6.05;;
36799;SDS011;22752;51.960;5.886;2023-06-24T06:05:56;5.63;;;4.50;;
36799;SDS011;22752;51.960;5.886;2023-06-24T06:08:22;5.18;;;4.68;;
36799;SDS011;22752;51.960;5.886;2023-06-24T06:10:47;6.15;;;4.25;;
36799;SDS011;22752;51.960;5.886;2023-06-24T06:13:13;9.90;;;5.45;;
36799;SDS011;22752;51.960;5.886;2023-06-24T06:15:39;5.38;;;4.85;;
36799;SDS011;22752;51.960;5.886;2023-06-24T06:18:04;7.47;;;5.20;;
36799;SDS011;22752;51.960;5.886;2023-06-24T06:20:30;6.82;;;5.22;;
36799;SDS011;22752;51.960;5.886;2023-06-24T06:22:56;6.95;;;5.45;;
36799;SDS011;22752;51.960;5.886;2023-06-24T06:25:21;7.65;;;5.50;;
36799;SDS011;22752;51.960;5.886;2023-06-24T06:27:47;5.72;;;4.30;;
36799;SDS011;22752;51.960;5.886;2023-06-24T06:30:13;6.20;;;5.40;;
36799;SDS011;22752;51.960;5.886;2023-06-24T06:32:39;5.88;;;4.97;;
36799;SDS011;22752;51.960;5.886;2023-06-24T06:35:04;7.38;;;5.40;;
36799;SDS011;22752;51.960;5.886;2023-06-24T06:37:30;7.13;;;4.85;;
36799;SDS011;22752;51.960;5.886;2023-06-24T06:39:56;6.72;;;5.55;;
36799;SDS011;22752;51.960;5.886;2023-06-24T06:42:21;7.15;;;4.95;;
36799;SDS011;22752;51.960;5.886;2023-06-24T06:44:47;6.50;;;5.03;;
36799;SDS011;22752;51.960;5.886;2023-06-24T06:47:13;7.13;;;5.15;;
36799;SDS011;22752;51.960;5.886;2023-06-24T06:49:38;5.20;;;4.63;;
36799;SDS011;22752;51.960;5.886;2023-06-24T06:52:04;5.80;;;4.72;;
36799;SDS011;22752;51.960;5.886;2023-06-24T06:54:30;8.38;;;6.28;;
36799;SDS011;22752;51.960;5.886;2023-06-24T06:57:05;7.05;;;5.57;;
36799;SDS011;22752;51.960;5.886;2023-06-24T06:59:31;6.75;;;6.00;;
36799;SDS011;22752;51.960;5.886;2023-06-24T07:01:57;8.52;;;5.78;;
36799;SDS011;22752;51.960;5.886;2023-06-24T07:04:23;5.97;;;5.03;;
36799;SDS011;22752;51.960;5.886;2023-06-24T07:06:49;6.70;;;4.97;;
36799;SDS011;22752;51.960;5.886;2023-06-24T07:09:14;7.25;;;4.70;;
36799;SDS011;22752;51.960;5.886;2023-06-24T07:11:43;6.57;;;4.78;;
36799;SDS011;22752;51.960;5.886;2023-06-24T07:14:09;8.23;;;5.72;;
36799;SDS011;22752;51.960;5.886;2023-06-24T07:16:35;7.18;;;5.43;;
36799;SDS011;22752;51.960;5.886;2023-06-24T07:19:01;6.18;;;4.35;;
36799;SDS011;22752;51.960;5.886;2023-06-24T07:21:28;6.63;;;3.85;;
36799;SDS011;22752;51.960;5.886;2023-06-24T07:23:53;4.90;;;4.40;;
36799;SDS011;22752;51.960;5.886;2023-06-24T07:26:19;7.57;;;4.80;;
36799;SDS011;22752;51.960;5.886;2023-06-24T07:28:46;6.95;;;4.68;;
36799;SDS011;22752;51.960;5.886;2023-06-24T07:31:11;7.00;;;4.40;;
36799;SDS011;22752;51.960;5.886;2023-06-24T07:33:37;3.63;;;3.33;;
36799;SDS011;22752;51.960;5.886;2023-06-24T07:36:03;4.22;;;3.80;;
36799;SDS011;22752;51.960;5.886;2023-06-24T07:38:29;6.70;;;5.05;;
36799;SDS011;22752;51.960;5.886;2023-06-24T07:40:55;6.95;;;4.43;;
36799;SDS011;22752;51.960;5.886;2023-06-24T07:43:21;5.72;;;4.03;;
36799;SDS011;22752;51.960;5.886;2023-06-24T07:45:46;7.85;;;4.53;;
36799;SDS011;22752;51.960;5.886;2023-06-24T07:48:12;5.38;;;4.10;;
36799;SDS011;22752;51.960;5.886;2023-06-24T07:50:38;5.60;;;3.42;;
36799;SDS011;22752;51.960;5.886;2023-06-24T07:53:04;3.38;;;2.75;;
36799;SDS011;22752;51.960;5.886;2023-06-24T07:55:30;4.45;;;4.00;;
36799;SDS011;22752;51.960;5.886;2023-06-24T07:57:56;5.65;;;2.80;;
36799;SDS011;22752;51.960;5.886;2023-06-24T08:00:23;5.15;;;3.15;;
36799;SDS011;22752;51.960;5.886;2023-06-24T08:02:49;4.93;;;4.10;;
36799;SDS011;22752;51.960;5.886;2023-06-24T08:05:15;4.40;;;4.00;;
36799;SDS011;22752;51.960;5.886;2023-06-24T08:07:43;4.53;;;3.40;;
36799;SDS011;22752;51.960;5.886;2023-06-24T08:10:09;4.43;;;3.08;;
36799;SDS011;22752;51.960;5.886;2023-06-24T08:12:35;5.07;;;3.67;;
36799;SDS011;22752;51.960;5.886;2023-06-24T08:15:01;5.13;;;3.30;;
36799;SDS011;22752;51.960;5.886;2023-06-24T08:17:27;3.47;;;3.17;;
36799;SDS011;22752;51.960;5.886;2023-06-24T08:19:53;4.97;;;4.05;;
36799;SDS011;22752;51.960;5.886;2023-06-24T08:22:18;4.03;;;3.20;;
36799;SDS011;22752;51.960;5.886;2023-06-24T08:24:44;4.43;;;3.63;;
36799;SDS011;22752;51.960;5.886;2023-06-24T08:27:10;5.15;;;3.70;;
36799;SDS011;22752;51.960;5.886;2023-06-24T08:29:35;5.00;;;3.90;;
36799;SDS011;22752;51.960;5.886;2023-06-24T08:32:03;3.88;;;3.45;;
36799;SDS011;22752;51.960;5.886;2023-06-24T08:34:29;3.60;;;3.08;;
36799;SDS011;22752;51.960;5.886;2023-06-24T08:36:55;4.57;;;3.88;;
36799;SDS011;22752;51.960;5.886;2023-06-24T08:39:20;3.78;;;3.47;;
36799;SDS011;22752;51.960;5.886;2023-06-24T08:41:46;4.28;;;3.60;;
36799;SDS011;22752;51.960;5.886;2023-06-24T08:44:12;3.90;;;3.60;;
36799;SDS011;22752;51.960;5.886;2023-06-24T08:46:37;4.85;;;3.30;;
36799;SDS011;22752;51.960;5.886;2023-06-24T08:49:06;5.07;;;3.92;;
36799;SDS011;22752;51.960;5.886;2023-06-24T08:51:40;3.00;;;2.70;;
36799;SDS011;22752;51.960;5.886;2023-06-24T08:54:08;5.72;;;4.18;;
36799;SDS011;22752;51.960;5.886;2023-06-24T08:56:34;3.70;;;3.40;;
36799;SDS011;22752;51.960;5.886;2023-06-24T08:59:04;4.70;;;3.55;;
36799;SDS011;22752;51.960;5.886;2023-06-24T09:01:31;4.43;;;3.47;;
36799;SDS011;22752;51.960;5.886;2023-06-24T09:03:56;5.43;;;3.88;;
36799;SDS011;22752;51.960;5.886;2023-06-24T09:06:22;4.50;;;4.10;;
36799;SDS011;22752;51.960;5.886;2023-06-24T09:08:56;6.40;;;4.00;;
36799;SDS011;22752;51.960;5.886;2023-06-24T09:11:23;5.55;;;4.53;;
36799;SDS011;22752;51.960;5.886;2023-06-24T09:13:54;5.25;;;4.57;;
36799;SDS011;22752;51.960;5.886;2023-06-24T09:16:20;8.50;;;4.20;;
36799;SDS011;22752;51.960;5.886;2023-06-24T09:18:49;3.33;;;3.03;;
36799;SDS011;22752;51.960;5.886;2023-06-24T09:21:34;6.00;;;3.40;;
36799;SDS011;22752;51.960;5.886;2023-06-24T09:24:00;4.80;;;3.28;;
36799;SDS011;22752;51.960;5.886;2023-06-24T09:26:26;5.63;;;3.67;;
36799;SDS011;22752;51.960;5.886;2023-06-24T09:28:54;4.18;;;3.50;;
36799;SDS011;22752;51.960;5.886;2023-06-24T09:31:22;6.25;;;3.50;;
36799;SDS011;22752;51.960;5.886;2023-06-24T09:33:48;4.50;;;4.10;;
36799;SDS011;22752;51.960;5.886;2023-06-24T09:36:14;4.75;;;3.50;;
36799;SDS011;22752;51.960;5.886;2023-06-24T09:38:41;4.85;;;3.42;;
36799;SDS011;22752;51.960;5.886;2023-06-24T09:41:09;5.85;;;4.70;;
36799;SDS011;22752;51.960;5.886;2023-06-24T09:43:35;6.25;;;4.35;;
36799;SDS011;22752;51.960;5.886;2023-06-24T09:46:02;6.03;;;4.00;;
36799;SDS011;22752;51.960;5.886;2023-06-24T09:48:29;4.50;;;3.90;;
36799;SDS011;22752;51.960;5.886;2023-06-24T09:51:04;5.05;;;3.25;;
36799;SDS011;22752;51.960;5.886;2023-06-24T09:53:30;4.75;;;3.63;;
36799;SDS011;22752;51.960;5.886;2023-06-24T09:56:00;4.90;;;3.55;;
36799;SDS011;22752;51.960;5.886;2023-06-24T09:58:32;5.40;;;3.33;;
36799;SDS011;22752;51.960;5.886;2023-06-24T10:01:02;4.78;;;3.13;;
36799;SDS011;22752;51.960;5.886;2023-06-24T10:03:29;3.25;;;2.95;;
36799;SDS011;22752;51.960;5.886;2023-06-24T10:05:58;7.22;;;3.28;;
36799;SDS011;22752;51.960;5.886;2023-06-24T10:08:25;5.57;;;3.90;;
36799;SDS011;22752;51.960;5.886;2023-06-24T10:10:53;4.22;;;3.50;;
36799;SDS011;22752;51.960;5.886;2023-06-24T10:13:19;5.88;;;3.97;;
36799;SDS011;22752;51.960;5.886;2023-06-24T10:15:45;5.00;;;3.63;;
36799;SDS011;22752;51.960;5.886;2023-06-24T10:21:10;4.18;;;3.33;;
36799;SDS011;22752;51.960;5.886;2023-06-24T10:23:50;3.35;;;2.60;;
36799;SDS011;22752;51.960;5.886;2023-06-24T10:34:27;4.10;;;3.63;;
36799;SDS011;22752;51.960;5.886;2023-06-24T10:37:03;6.50;;;3.97;;
36799;SDS011;22752;51.960;5.886;2023-06-24T10:39:38;6.75;;;4.50;;
36799;SDS011;22752;51.960;5.886;2023-06-24T10:44:52;6.95;;;3.90;;
36799;SDS011;22752;51.960;5.886;2023-06-24T10:47:21;6.70;;;3.15;;
36799;SDS011;22752;51.960;5.886;2023-06-24T10:49:47;4.55;;;3.42;;
36799;SDS011;22752;51.960;5.886;2023-06-24T10:52:13;4.18;;;3.40;;
36799;SDS011;22752;51.960;5.886;2023-06-24T10:54:39;4.47;;;4.07;;
36799;SDS011;22752;51.960;5.886;2023-06-24T10:57:10;5.10;;;4.22;;
36799;SDS011;22752;51.960;5.886;2023-06-24T10:59:40;4.93;;;3.83;;
36799;SDS011;22752;51.960;5.886;2023-06-24T11:02:09;7.05;;;4.50;;
36799;SDS011;22752;51.960;5.886;2023-06-24T11:04:45;4.70;;;3.67;;
36799;SDS011;22752;51.960;5.886;2023-06-24T11:07:14;3.85;;;3.42;;
36799;SDS011;22752;51.960;5.886;2023-06-24T11:09:41;5.78;;;3.80;;
36799;SDS011;22752;51.960;5.886;2023-06-24T11:12:08;4.80;;;3.10;;
36799;SDS011;22752;51.960;5.886;2023-06-24T11:14:35;4.38;;;3.20;;
36799;SDS011;22752;51.960;5.886;2023-06-24T11:17:04;5.10;;;3.80;;
36799;SDS011;22752;51.960;5.886;2023-06-24T11:19:30;7.95;;;4.72;;
36799;SDS011;22752;51.960;5.886;2023-06-24T11:22:00;6.03;;;4.22;;
36799;SDS011;22752;51.960;5.886;2023-06-24T11:24:29;5.82;;;4.75;;
36799;SDS011;22752;51.960;5.886;2023-06-24T11:26:55;7.13;;;4.72;;
36799;SDS011;22752;51.960;5.886;2023-06-24T11:29:21;5.50;;;3.60;;
36799;SDS011;22752;51.960;5.886;2023-06-24T11:31:50;4.03;;;3.28;;
36799;SDS011;22752;51.960;5.886;2023-06-24T11:34:16;3.58;;;3.25;;
36799;SDS011;22752;51.960;5.886;2023-06-24T11:36:42;6.50;;;4.70;;
36799;SDS011;22752;51.960;5.886;2023-06-24T11:39:08;6.10;;;4.82;;
36799;SDS011;22752;51.960;5.886;2023-06-24T11:41:33;7.22;;;4.10;;
36799;SDS011;22752;51.960;5.886;2023-06-24T11:44:01;5.78;;;4.30;;
36799;SDS011;22752;51.960;5.886;2023-06-24T11:46:27;6.05;;;3.63;;
36799;SDS011;22752;51.960;5.886;2023-06-24T11:49:04;8.75;;;3.83;;
36799;SDS011;22752;51.960;5.886;2023-06-24T11:51:34;6.53;;;3.95;;
36799;SDS011;22752;51.960;5.886;2023-06-24T11:54:04;5.22;;;3.50;;
36799;SDS011;22752;51.960;5.886;2023-06-24T11:56:34;5.65;;;4.05;;
36799;SDS011;22752;51.960;5.886;2023-06-24T11:59:03;5.20;;;4.13;;
36799;SDS011;22752;51.960;5.886;2023-06-24T12:01:32;3.80;;;3.10;;
36799;SDS011;22752;51.960;5.886;2023-06-24T12:04:01;5.85;;;4.50;;
36799;SDS011;22752;51.960;5.886;2023-06-24T12:06:35;7.22;;;3.83;;
36799;SDS011;22752;51.960;5.886;2023-06-24T12:09:01;6.80;;;4.00;;
36799;SDS011;22752;51.960;5.886;2023-06-24T12:11:27;9.82;;;4.05;;
36799;SDS011;22752;51.960;5.886;2023-06-24T12:13:52;4.68;;;3.83;;
36799;SDS011;22752;51.960;5.886;2023-06-24T12:16:18;4.82;;;3.47;;
36799;SDS011;22752;51.960;5.886;2023-06-24T12:18:44;6.72;;;3.85;;
36799;SDS011;22752;51.960;5.886;2023-06-24T12:21:09;3.90;;;3.38;;
36799;SDS011;22752;51.960;5.886;2023-06-24T12:23:35;6.03;;;2.97;;
36799;SDS011;22752;51.960;5.886;2023-06-24T12:26:01;2.90;;;2.58;;
36799;SDS011;22752;51.960;5.886;2023-06-24T12:28:27;4.93;;;3.53;;
36799;SDS011;22752;51.960;5.886;2023-06-24T12:30:52;5.38;;;3.50;;
36799;SDS011;22752;51.960;5.886;2023-06-24T12:33:18;4.20;;;3.45;;
36799;SDS011;22752;51.960;5.886;2023-06-24T12:35:46;5.72;;;3.00;;
36799;SDS011;22752;51.960;5.886;2023-06-24T12:38:11;4.68;;;3.10;;
36799;SDS011;22752;51.960;5.886;2023-06-24T12:40:37;6.43;;;5.10;;
36799;SDS011;22752;51.960;5.886;2023-06-24T12:43:02;3.30;;;3.00;;
36799;SDS011;22752;51.960;5.886;2023-06-24T12:45:29;3.95;;;3.55;;
36799;SDS011;22752;51.960;5.886;2023-06-24T12:47:55;7.18;;;4.57;;
36799;SDS011;22752;51.960;5.886;2023-06-24T12:50:20;4.95;;;3.70;;
36799;SDS011;22752;51.960;5.886;2023-06-24T12:52:46;3.30;;;2.85;;
36799;SDS011;22752;51.960;5.886;2023-06-24T12:55:12;4.55;;;3.58;;
36799;SDS011;22752;51.960;5.886;2023-06-24T12:57:37;3.33;;;3.03;;
36799;SDS011;22752;51.960;5.886;2023-06-24T13:00:05;5.25;;;3.42;;
36799;SDS011;22752;51.960;5.886;2023-06-24T13:02:32;4.20;;;2.83;;
36799;SDS011;22752;51.960;5.886;2023-06-24T13:04:58;4.20;;;3.33;;
36799;SDS011;22752;51.960;5.886;2023-06-24T13:07:24;3.90;;;2.70;;
36799;SDS011;22752;51.960;5.886;2023-06-24T13:09:49;5.70;;;3.30;;
36799;SDS011;22752;51.960;5.886;2023-06-24T13:12:15;5.47;;;2.60;;
36799;SDS011;22752;51.960;5.886;2023-06-24T13:14:40;3.55;;;2.90;;
36799;SDS011;22752;51.960;5.886;2023-06-24T13:17:06;4.75;;;3.28;;
36799;SDS011;22752;51.960;5.886;2023-06-24T13:19:32;3.90;;;3.25;;
36799;SDS011;22752;51.960;5.886;2023-06-24T13:21:58;3.05;;;2.67;;
36799;SDS011;22752;51.960;5.886;2023-06-24T13:24:24;5.97;;;2.65;;
36799;SDS011;22752;51.960;5.886;2023-06-24T13:26:50;4.20;;;2.60;;
36799;SDS011;22752;51.960;5.886;2023-06-24T13:29:16;6.03;;;4.03;;
36799;SDS011;22752;51.960;5.886;2023-06-24T13:31:42;4.00;;;3.35;;
36799;SDS011;22752;51.960;5.886;2023-06-24T13:34:07;4.18;;;2.75;;
36799;SDS011;22752;51.960;5.886;2023-06-24T13:36:34;5.90;;;3.45;;
36799;SDS011;22752;51.960;5.886;2023-06-24T13:39:02;6.32;;;2.67;;
36799;SDS011;22752;51.960;5.886;2023-06-24T13:41:29;3.00;;;2.70;;
36799;SDS011;22752;51.960;5.886;2023-06-24T13:43:57;3.53;;;2.67;;
36799;SDS011;22752;51.960;5.886;2023-06-24T13:46:23;4.47;;;2.80;;
36799;SDS011;22752;51.960;5.886;2023-06-24T13:48:49;2.97;;;2.30;;
36799;SDS011;22752;51.960;5.886;2023-06-24T13:51:15;2.72;;;2.33;;
36799;SDS011;22752;51.960;5.886;2023-06-24T13:53:42;4.60;;;2.95;;
36799;SDS011;22752;51.960;5.886;2023-06-24T13:56:08;5.00;;;2.35;;
36799;SDS011;22752;51.960;5.886;2023-06-24T13:58:34;7.00;;;2.53;;
36799;SDS011;22752;51.960;5.886;2023-06-24T14:01:00;4.38;;;2.78;;
36799;SDS011;22752;51.960;5.886;2023-06-24T14:03:25;6.10;;;3.28;;
36799;SDS011;22752;51.960;5.886;2023-06-24T14:05:51;6.05;;;3.45;;
36799;SDS011;22752;51.960;5.886;2023-06-24T14:08:17;4.75;;;2.97;;
36799;SDS011;22752;51.960;5.886;2023-06-24T14:10:42;4.20;;;2.70;;
36799;SDS011;22752;51.960;5.886;2023-06-24T14:13:08;3.42;;;2.60;;
36799;SDS011;22752;51.960;5.886;2023-06-24T14:15:34;3.22;;;2.75;;
36799;SDS011;22752;51.960;5.886;2023-06-24T14:18:00;3.45;;;3.05;;
36799;SDS011;22752;51.960;5.886;2023-06-24T14:20:25;4.93;;;3.60;;
36799;SDS011;22752;51.960;5.886;2023-06-24T14:22:51;4.95;;;3.58;;
36799;SDS011;22752;51.960;5.886;2023-06-24T14:25:17;4.50;;;3.63;;
36799;SDS011;22752;51.960;5.886;2023-06-24T14:27:42;4.50;;;2.78;;
36799;SDS011;22752;51.960;5.886;2023-06-24T14:30:09;4.05;;;3.00;;
36799;SDS011;22752;51.960;5.886;2023-06-24T14:32:34;3.72;;;2.85;;
36799;SDS011;22752;51.960;5.886;2023-06-24T14:35:00;2.97;;;2.67;;
36799;SDS011;22752;51.960;5.886;2023-06-24T14:37:26;5.07;;;3.30;;
36799;SDS011;22752;51.960;5.886;2023-06-24T14:39:51;6.97;;;3.30;;
36799;SDS011;22752;51.960;5.886;2023-06-24T14:42:17;4.80;;;3.65;;
36799;SDS011;22752;51.960;5.886;2023-06-24T14:44:42;3.20;;;2.90;;
36799;SDS011;22752;51.960;5.886;2023-06-24T14:47:09;5.68;;;3.30;;
36799;SDS011;22752;51.960;5.886;2023-06-24T14:49:35;3.88;;;2.80;;
36799;SDS011;22752;51.960;5.886;2023-06-24T14:52:00;3.53;;;2.53;;
36799;SDS011;22752;51.960;5.886;2023-06-24T14:54:26;5.15;;;2.80;;
36799;SDS011;22752;51.960;5.886;2023-06-24T14:56:51;2.90;;;2.70;;
36799;SDS011;22752;51.960;5.886;2023-06-24T14:59:17;3.92;;;3.17;;
36799;SDS011;22752;51.960;5.886;2023-06-24T15:01:43;4.00;;;3.20;;
36799;SDS011;22752;51.960;5.886;2023-06-24T15:04:08;5.68;;;3.05;;
36799;SDS011;22752;51.960;5.886;2023-06-24T15:06:34;5.45;;;3.20;;
36799;SDS011;22752;51.960;5.886;2023-06-24T15:09:00;3.60;;;2.90;;
36799;SDS011;22752;51.960;5.886;2023-06-24T15:11:25;4.75;;;3.33;;